Pagrindinis puslapis
METAR-TAF:

METAR-TAF

Oro uostai :

Peskara, Italija

platuma: 42-26N, ilguma: 014-12E, Aukštis: 10 m

Dabartinis oras

Ataskaita buvo paskelbta 22 minutes, ne 18:50 UTC
Vėjas 7 kt iš Šiaurės, svyruoja nuo Vakarų/Šiaurės Vakarų ir Šiaurės/Šiaurės Rytų
Temperatūra 19°C
Drėgmė 94%
Slėgis 1019 hPa
Matomumas 10 km arba daugiau
Išsisklaidę debesys ne aukštis 1000 ft
Apsiniaukę ne aukštis 2500 ft
lietus

METAR: LIBP 191850Z 35007KT 300V020 9999 RA SCT010 OVC025 19/18 Q1019

Laikas: 21:12 (19:12 UTC)

Prognozė

Ataskaita buvo paskelbta 2 valandos ir 12 minutes, ne 17:00 UTC
Prognozė galioja nuo 19 metu 18 UTC su 20 metu 18 UTC
Vėjas 8 kt iš Šiaurės/Šiaurės Rytų
Matomumas 10 km arba daugiau
Mažai debesys ne aukštis 3000 ft
Laikinai
nuo 19 metu 18 UTC su 19 metu 21 UTC
lietus

TAF: LIBP 191700Z 1918/2018 02008KT 9999 FEW030 TEMPO 1918/1921 RA

Orai ataskaitas ir orų prognozės (METAR, TAF).

turimą stotys yra geltonos ir raudonos taškus žemėlapyje.

Perkelti pele per norėdami pamatyti stoties vardą.

Tada spustelėkite, norėdami matyti oro stebėjimo ir prognozės.

Norėdami pakeisti žemėlapį: spustelėkite ant žalios mygtukų su juodo kryžiaus žemyn,; žalią mygtuką su brūkšneliu, jei norite nutolinti; arba žalių rodyklių gretimoms žemėlapius.


METAR-TAF: